Time;durP1;ratioP1;P1;durP2;ratioP2;P2;SDS_P1;SDS_P2;PMS_P1;PMS_P2;Temp;Humidity;BMP_temperature;BMP_pressure;BME280_temperature;BME280_humidity;BME280_pressure;Samples;Min_cycle;Max_cycle;Signal;HPM_P1;HPM_P2
2022/07/31 00:01:53;;;;;;;;;0.33;0.33;;;;;23.16;60.00;101184.50;4972673;28;45709;-86
2022/07/31 00:04:19;;;;;;;;;1.00;1.00;;;;;23.16;60.60;101184.50;4972168;28;45741;-86
2022/07/31 00:10:07;;;;;;;;;1.67;1.67;;;;;23.08;60.93;101178.44;4973137;28;44796;-85
2022/07/31 00:12:33;;;;;;;;;2.00;2.00;;;;;23.11;60.15;101184.66;4972592;28;45423;-85
2022/07/31 00:15:00;;;;;;;;;2.00;2.00;;;;;23.12;60.44;101180.13;4975174;28;45587;-85
2022/07/31 00:17:26;;;;;;;;;1.00;1.00;;;;;23.11;60.36;101181.06;4974713;28;46124;-86
2022/07/31 00:19:53;;;;;;;;;0.33;0.33;;;;;22.96;60.80;101164.25;4975616;28;45305;-86
2022/07/31 00:22:19;;;;;;;;;0.67;0.67;;;;;23.07;61.10;101179.38;4976432;28;45401;-85
2022/07/31 00:24:44;;;;;;;;;3.00;1.00;;;;;23.03;61.49;101177.69;4975703;28;45247;-85
2022/07/31 00:27:09;;;;;;;;;1.00;1.00;;;;;22.93;61.02;101168.91;4976647;28;45630;-85
2022/07/31 00:32:56;;;;;;;;;1.00;1.00;;;;;22.91;61.48;101179.81;4975955;28;45448;-87
2022/07/31 00:35:22;;;;;;;;;1.00;1.00;;;;;22.92;60.94;101180.69;4974244;28;45423;-86
2022/07/31 00:37:48;;;;;;;;;1.00;1.00;;;;;22.86;61.39;101175.44;4973938;28;46550;-86
2022/07/31 00:40:15;;;;;;;;;2.00;2.00;;;;;22.88;61.21;101181.72;4973846;28;45346;-86
2022/07/31 00:42:41;;;;;;;;;1.00;1.00;;;;;22.82;61.47;101182.78;4974414;28;45418;-86
2022/07/31 00:45:10;;;;;;;;;0.67;0.67;;;;;22.76;61.20;101173.03;4972824;28;45639;-85
2022/07/31 00:47:36;;;;;;;;;0.67;0.67;;;;;22.77;61.89;101173.91;4973103;28;45570;-86
2022/07/31 00:53:27;;;;;;;;;1.00;1.00;;;;;22.74;62.84;101176.69;4974153;28;44826;-86
2022/07/31 00:55:52;;;;;;;;;7.33;7.33;;;;;22.67;62.65;101167.00;4973613;28;45342;-86
2022/07/31 00:58:19;;;;;;;;;27.33;25.67;;;;;22.74;62.57;101179.41;4972331;28;47755;-85
2022/07/31 01:00:44;;;;;;;;;11.00;11.00;;;;;22.66;63.44;101166.09;4971307;28;45497;-86
2022/07/31 01:03:10;;;;;;;;;3.00;3.00;;;;;22.71;63.11;101176.81;4973482;28;44860;-86
2022/07/31 01:05:38;;;;;;;;;3.00;1.33;;;;;22.62;62.79;101168.94;4972211;28;44895;-85
2022/07/31 01:08:04;;;;;;;;;1.00;1.00;;;;;22.50;63.60;101165.66;4973380;28;45291;-85
2022/07/31 01:10:48;;;;;;;;;2.00;2.00;;;;;22.58;63.86;101189.81;4971427;28;45400;-87
2022/07/31 01:13:25;;;;;;;;;1.33;1.33;;;;;22.52;63.37;101187.28;4973865;28;45500;-86
2022/07/31 01:15:54;;;;;;;;;1.67;1.67;;;;;22.46;64.76;101182.03;4973427;28;44827;-86
2022/07/31 01:18:24;;;;;;;;;1.00;1.00;;;;;22.34;67.33;101175.16;4972196;28;46972;-87
2022/07/31 01:20:51;;;;;;;;;3.00;2.00;;;;;22.31;64.80;101180.66;4988679;28;45231;-86
2022/07/31 01:23:46;;;;;;;;;2.67;2.67;;;;;22.33;64.95;101185.09;4974043;28;45314;-86
2022/07/31 01:26:11;;;;;;;;;1.00;1.00;;;;;22.35;65.21;101187.75;4884209;29;44968;-86
2022/07/31 01:28:59;;;;;;;;;1.33;1.00;;;;;22.35;64.65;101183.22;4880519;29;46781;-85
2022/07/31 01:31:47;;;;;;;;;1.33;1.00;;;;;22.33;65.17;101173.38;4895753;29;45288;-85
2022/07/31 01:34:30;;;;;;;;;1.00;1.00;;;;;22.32;65.74;101187.88;4880892;29;45466;-86
2022/07/31 01:41:37;;;;;;;;;1.00;1.00;;;;;22.25;65.65;101192.53;4861445;29;45227;-88
2022/07/31 01:44:05;;;;;;;;;2.00;1.00;;;;;22.25;65.85;101192.53;4839885;29;45403;-86
2022/07/31 01:46:33;;;;;;;;;2.00;2.00;;;;;22.25;65.70;101187.13;4858083;29;44911;-87
2022/07/31 01:49:01;;;;;;;;;1.00;1.00;;;;;22.25;66.01;101191.66;4841660;29;45501;-85
2022/07/31 01:51:29;;;;;;;;;1.00;1.00;;;;;22.25;65.71;101188.94;4825430;29;47073;-86
2022/07/31 01:53:59;;;;;;;;;2.00;2.00;;;;;22.21;66.28;101193.53;4855636;29;45809;-86
2022/07/31 01:56:26;;;;;;;;;1.33;1.33;;;;;22.18;66.66;101191.78;4841208;29;44845;-86
2022/07/31 01:58:53;;;;;;;;;3.00;3.00;;;;;22.13;66.48;101179.28;4856554;29;45318;-87
2022/07/31 02:01:19;;;;;;;;;1.00;1.00;;;;;22.10;66.47;101193.81;4841494;29;47087;-85
2022/07/31 02:03:48;;;;;;;;;2.33;2.33;;;;;22.03;66.90;101177.75;4887278;29;45510;-86
2022/07/31 02:06:16;;;;;;;;;1.00;1.00;;;;;22.09;66.44;101199.28;4894831;29;45407;-85
2022/07/31 02:08:44;;;;;;;;;1.00;1.00;;;;;21.98;68.79;101191.44;4895315;29;45479;-86
2022/07/31 02:11:12;;;;;;;;;2.00;2.00;;;;;21.94;69.74;101197.84;4879572;29;48536;-87
2022/07/31 02:13:38;;;;;;;;;2.33;2.00;;;;;21.84;67.93;101201.72;4900685;28;45493;-86
2022/07/31 02:16:05;;;;;;;;;2.00;2.00;;;;;21.81;68.22;101194.56;4954190;28;45505;-86
2022/07/31 02:18:32;;;;;;;;;1.00;1.00;;;;;21.75;70.39;101187.50;4951499;28;45447;-87
2022/07/31 02:20:58;;;;;;;;;2.00;2.00;;;;;21.73;69.99;101177.63;4951106;28;47461;-85
2022/07/31 02:23:24;;;;;;;;;0.33;0.33;;;;;21.70;69.23;101189.41;4951040;28;45898;-85
2022/07/31 02:26:03;;;;;;;;;3.00;3.00;;;;;21.69;69.29;101195.78;4951915;28;45345;-86
2022/07/31 02:28:31;;;;;;;;;2.67;2.00;;;;;21.59;70.15;101186.06;4967927;28;44921;-86
2022/07/31 02:30:57;;;;;;;;;1.33;1.33;;;;;21.58;70.17;101201.44;4953085;28;45451;-86
2022/07/31 02:33:25;;;;;;;;;2.00;2.00;;;;;21.58;70.84;101203.25;4968153;28;45713;-85
2022/07/31 02:35:55;;;;;;;;;2.00;2.00;;;;;21.50;71.41;101194.44;4968085;28;45420;-85
2022/07/31 02:38:22;;;;;;;;;2.00;2.00;;;;;21.47;72.31;101187.28;4951650;28;45571;-85
2022/07/31 02:40:50;;;;;;;;;3.33;3.33;;;;;21.39;71.97;101178.44;4951730;28;46928;-85
2022/07/31 02:43:16;;;;;;;;;1.00;1.00;;;;;21.45;71.87;101183.72;4950738;28;45393;-85
2022/07/31 02:45:42;;;;;;;;;2.67;2.00;;;;;21.44;71.79;101176.53;4951455;28;45362;-86
2022/07/31 02:48:08;;;;;;;;;1.67;1.67;;;;;21.44;71.54;101175.66;4952664;28;44936;-86
2022/07/31 02:50:36;;;;;;;;;2.00;2.00;;;;;21.43;72.83;101179.25;4949584;28;47291;-86
2022/07/31 02:53:02;;;;;;;;;3.00;1.33;;;;;21.40;72.30;101182.03;4949602;28;45489;-87
2022/07/31 02:55:29;;;;;;;;;1.33;1.33;;;;;21.38;72.72;101179.34;4951315;28;45349;-86
2022/07/31 02:57:54;;;;;;;;;2.00;2.00;;;;;21.41;71.17;101171.16;4951665;28;44739;-85
2022/07/31 03:00:25;;;;;;;;;3.00;2.00;;;;;21.41;72.78;101173.88;4951719;28;47188;-86
2022/07/31 03:02:53;;;;;;;;;1.00;1.00;;;;;21.50;72.48;101180.91;4951686;28;44811;-85
2022/07/31 03:05:19;;;;;;;;;2.00;2.00;;;;;21.49;72.89;101180.03;4951460;28;44788;-86
2022/07/31 03:07:44;;;;;;;;;1.33;1.33;;;;;21.50;74.85;101178.19;4951812;28;45452;-86
2022/07/31 03:10:11;;;;;;;;;2.00;2.00;;;;;21.50;72.83;101178.19;4965498;28;46716;-86
2022/07/31 03:12:43;;;;;;;;;2.67;2.67;;;;;21.46;73.51;101153.03;4953003;28;44765;-86
2022/07/31 03:15:13;;;;;;;;;1.00;1.00;;;;;21.58;74.16;101178.91;4966587;28;45369;-86
2022/07/31 03:17:40;;;;;;;;;1.00;1.00;;;;;21.47;73.71;101159.31;4969301;28;45629;-85
2022/07/31 03:20:08;;;;;;;;;2.00;2.00;;;;;21.51;73.87;101159.22;4969058;28;46970;-86
2022/07/31 03:22:34;;;;;;;;;2.00;2.00;;;;;21.53;72.88;101159.16;4970421;28;45373;-86
2022/07/31 03:25:03;;;;;;;;;2.00;2.00;;;;;21.49;76.39;101152.06;4970078;28;45435;-86
2022/07/31 03:27:32;;;;;;;;;3.00;3.00;;;;;21.49;75.22;101162.88;4970072;28;44805;-85
2022/07/31 03:30:06;;;;;;;;;3.00;2.00;;;;;21.45;74.91;101158.47;4969889;28;47331;-85
2022/07/31 03:32:31;;;;;;;;;3.00;3.00;;;;;21.40;76.01;101146.84;4954264;28;45437;-85
2022/07/31 03:34:57;;;;;;;;;4.00;4.00;;;;;21.44;75.73;101148.59;4970639;28;45258;-84
2022/07/31 03:37:22;;;;;;;;;3.00;3.00;;;;;21.35;76.19;101142.44;4969922;28;45362;-87
2022/07/31 03:39:48;;;;;;;;;6.67;6.67;;;;;21.40;76.06;101139.63;4970934;28;45339;-86
2022/07/31 03:42:13;;;;;;;;;7.00;7.00;;;;;21.38;75.37;101150.47;4969793;28;45430;-86
2022/07/31 03:44:40;;;;;;;;;6.00;6.00;;;;;21.41;76.07;101137.78;4969542;28;45420;-86
2022/07/31 03:47:06;;;;;;;;;6.00;5.67;;;;;21.48;76.54;101144.88;4971385;28;45406;-86
2022/07/31 03:49:32;;;;;;;;;7.67;7.67;;;;;21.57;75.31;101163.56;4971097;28;45365;-87
2022/07/31 03:51:58;;;;;;;;;8.33;7.33;;;;;21.60;76.46;101147.28;4971136;28;45871;-85
2022/07/31 03:54:23;;;;;;;;;8.33;7.67;;;;;21.66;75.74;101148.94;4971642;28;45462;-85
2022/07/31 03:56:51;;;;;;;;;8.00;8.00;;;;;21.68;75.57;101141.66;4971130;28;45451;-85
2022/07/31 03:59:18;;;;;;;;;5.67;5.67;;;;;21.72;75.46;101136.13;4970913;28;46791;-87
2022/07/31 04:01:44;;;;;;;;;8.00;8.00;;;;;21.79;75.38;101144.97;4972801;28;45313;-85
2022/07/31 04:04:10;;;;;;;;;6.00;6.00;;;;;21.83;76.46;101129.53;4970863;28;45502;-85
2022/07/31 04:06:35;;;;;;;;;6.67;6.67;;;;;21.83;75.43;101135.84;4971379;28;45297;-85
2022/07/31 04:09:01;;;;;;;;;6.00;6.00;;;;;21.90;75.03;101133.88;4970530;28;45483;-85
2022/07/31 04:11:27;;;;;;;;;8.67;8.67;;;;;21.92;74.67;101148.28;4972214;28;45579;-86
2022/07/31 04:13:53;;;;;;;;;6.33;6.33;;;;;21.91;75.03;101141.94;4971529;28;44879;-84
2022/07/31 04:16:19;;;;;;;;;7.33;7.00;;;;;21.96;74.07;101144.53;4971858;28;45507;-86
2022/07/31 04:18:44;;;;;;;;;10.00;7.33;;;;;22.00;73.93;101138.13;4969283;28;47021;-85
2022/07/31 04:21:10;;;;;;;;;4.33;4.00;;;;;22.10;73.81;101146.88;4968516;28;45370;-86
2022/07/31 04:26:57;;;;;;;;;6.67;5.33;;;;;22.11;73.07;101151.34;4973321;28;44824;-85
2022/07/31 04:29:27;;;;;;;;;4.00;3.00;;;;;22.11;72.91;101160.38;4970195;28;46981;-86
2022/07/31 04:31:53;;;;;;;;;4.00;4.00;;;;;22.04;73.09;101150.66;4970914;28;44721;-85
2022/07/31 04:34:19;;;;;;;;;6.00;4.67;;;;;22.12;73.05;101162.16;4969676;28;45195;-85
2022/07/31 04:36:44;;;;;;;;;4.33;4.33;;;;;22.12;72.10;101143.19;4970431;28;44891;-86
2022/07/31 04:39:10;;;;;;;;;5.33;5.33;;;;;22.09;75.11;101147.81;4969602;28;46854;-86
2022/07/31 04:41:35;;;;;;;;;3.00;3.00;;;;;22.00;72.39;101143.53;4968965;28;45389;-85
2022/07/31 04:44:01;;;;;;;;;6.67;5.00;;;;;21.96;75.10;101136.41;4971232;28;44840;-86
2022/07/31 04:46:26;;;;;;;;;6.33;5.33;;;;;21.91;74.84;101141.94;4970953;28;45347;-86
2022/07/31 04:48:52;;;;;;;;;5.67;5.67;;;;;21.89;75.11;101145.63;4970530;28;45295;-86
2022/07/31 04:51:19;;;;;;;;;5.00;5.00;;;;;21.95;73.98;101145.47;4969274;28;45474;-86
2022/07/31 04:53:46;;;;;;;;;4.67;4.67;;;;;21.91;75.00;101149.19;4971275;28;44810;-86
2022/07/31 04:58:57;;;;;;;;;3.67;3.67;;;;;21.82;76.75;101149.44;4971643;28;45742;-84
2022/07/31 05:01:22;;;;;;;;;6.67;6.00;;;;;21.78;76.00;101144.09;4972351;28;45397;-85
2022/07/31 05:03:48;;;;;;;;;5.67;5.00;;;;;21.76;76.58;101148.66;4974525;28;45338;-85
2022/07/31 05:06:13;;;;;;;;;6.00;6.00;;;;;21.75;76.21;101148.69;4974416;28;45578;-86
2022/07/31 05:08:39;;;;;;;;;8.33;8.00;;;;;21.70;76.81;101151.53;4974106;28;46690;-85
2022/07/31 05:11:21;;;;;;;;;5.00;5.00;;;;;21.73;77.75;101156.88;4973603;28;45888;-86
2022/07/31 05:17:51;;;;;;;;;5.00;5.00;;;;;21.76;79.47;101172.13;4973246;28;45412;-84
2022/07/31 05:20:18;;;;;;;;;7.33;7.33;;;;;21.70;80.58;101166.88;4974894;28;45544;-85
2022/07/31 05:22:43;;;;;;;;;4.67;4.67;;;;;21.63;80.18;101163.41;4973712;28;45302;-85
2022/07/31 05:25:09;;;;;;;;;4.00;4.00;;;;;21.69;82.61;101168.72;4974439;28;45427;-84
2022/07/31 05:27:35;;;;;;;;;4.67;4.00;;;;;21.66;79.87;101155.22;4969274;28;45585;-85
2022/07/31 05:30:00;;;;;;;;;7.00;5.33;;;;;21.70;79.64;101154.22;4953326;28;47083;-85
2022/07/31 05:32:26;;;;;;;;;3.00;3.00;;;;;21.69;80.23;101132.59;4937677;28;45379;-85
2022/07/31 05:34:51;;;;;;;;;4.00;3.00;;;;;21.68;80.93;101155.22;4954610;28;44908;-85
2022/07/31 05:37:17;;;;;;;;;5.00;5.00;;;;;21.67;80.00;101161.53;4954757;28;44757;-85
2022/07/31 05:39:42;;;;;;;;;5.33;5.33;;;;;21.62;80.71;101158.94;4938418;28;46998;-84
2022/07/31 05:42:08;;;;;;;;;3.67;3.67;;;;;21.53;80.61;101145.63;4953195;28;45476;-85
2022/07/31 05:44:33;;;;;;;;;5.00;5.00;;;;;21.63;79.61;101157.13;4954367;28;45434;-85
2022/07/31 05:46:59;;;;;;;;;6.00;5.00;;;;;21.54;79.17;101144.72;4956050;28;45410;-85
2022/07/31 05:49:27;;;;;;;;;8.00;6.33;;;;;21.64;79.39;101162.50;4953616;28;46980;-85
2022/07/31 05:51:54;;;;;;;;;5.00;5.00;;;;;21.72;78.50;101165.91;4955599;28;45343;-85
2022/07/31 05:54:20;;;;;;;;;5.00;5.00;;;;;21.74;79.55;101166.75;4955240;28;45381;-85
2022/07/31 05:56:46;;;;;;;;;4.00;4.00;;;;;21.75;78.44;101171.25;4971397;28;44755;-85
2022/07/31 05:59:11;;;;;;;;;5.00;5.00;;;;;21.75;79.75;101175.75;4954132;28;47003;-85
2022/07/31 06:01:38;;;;;;;;;6.00;6.00;;;;;21.70;79.52;101175.00;4953487;28;45166;-85
2022/07/31 06:04:51;;;;;;;;;5.00;5.00;;;;;21.74;80.34;101168.59;4954647;28;44752;-85
2022/07/31 06:07:16;;;;;;;;;6.00;6.00;;;;;21.84;80.03;101158.41;4955054;28;45305;-84
2022/07/31 06:09:41;;;;;;;;;5.67;5.67;;;;;21.94;79.63;101149.13;4954521;28;47025;-85
2022/07/31 06:12:07;;;;;;;;;4.00;4.00;;;;;22.09;77.59;101148.69;4954993;28;45301;-85
2022/07/31 06:14:33;;;;;;;;;4.00;4.00;;;;;22.20;77.17;101161.03;4952726;28;45432;-85
2022/07/31 06:16:58;;;;;;;;;5.00;5.00;;;;;22.26;76.57;101150.97;4954029;28;45334;-85
2022/07/31 06:19:23;;;;;;;;;6.00;6.00;;;;;22.40;76.45;101158.72;4952999;28;45580;-85
2022/07/31 06:21:49;;;;;;;;;4.00;4.00;;;;;22.54;75.59;101161.94;4952364;28;45492;-86
2022/07/31 06:24:14;;;;;;;;;3.33;3.33;;;;;22.59;74.71;101166.31;4952600;28;45116;-86
2022/07/31 06:26:40;;;;;;;;;6.00;6.00;;;;;22.61;73.42;101175.31;4953048;28;44884;-86
2022/07/31 06:29:06;;;;;;;;;4.00;3.00;;;;;22.62;72.41;101174.34;4953223;28;47250;-86
2022/07/31 06:31:31;;;;;;;;;5.67;5.00;;;;;22.66;72.17;101165.19;4953319;28;44884;-86
2022/07/31 06:33:56;;;;;;;;;4.00;4.00;;;;;22.81;71.79;101158.44;4953427;28;45575;-86
2022/07/31 06:36:22;;;;;;;;;5.00;5.00;;;;;22.98;70.61;101161.50;4952514;28;45448;-86
2022/07/31 06:38:47;;;;;;;;;8.00;6.00;;;;;23.17;69.38;101164.59;4952435;28;46998;-86
2022/07/31 06:43:57;;;;;;;;;3.00;3.00;;;;;23.50;67.12;101169.88;4953458;28;45456;-86
2022/07/31 06:46:22;;;;;;;;;6.33;5.00;;;;;23.40;67.23;101168.38;4952581;28;45059;-85
2022/07/31 06:48:48;;;;;;;;;5.00;5.00;;;;;23.44;67.34;101173.66;4951774;28;46559;-85
2022/07/31 06:51:13;;;;;;;;;6.00;4.67;;;;;23.46;67.55;101176.34;4952834;28;45391;-85
2022/07/31 06:53:39;;;;;;;;;5.33;5.33;;;;;23.47;67.39;101176.28;4952658;28;45307;-85
2022/07/31 06:56:04;;;;;;;;;5.00;5.00;;;;;23.44;67.25;101183.63;4952509;28;44822;-85
2022/07/31 06:58:30;;;;;;;;;7.67;6.33;;;;;23.32;67.22;101180.38;4951958;28;48218;-85
2022/07/31 07:00:56;;;;;;;;;5.33;5.33;;;;;23.30;67.68;101190.38;4952717;28;45529;-86
2022/07/31 07:03:22;;;;;;;;;5.00;5.00;;;;;23.22;66.60;101186.16;4951590;28;44688;-85
2022/07/31 07:05:48;;;;;;;;;5.33;5.33;;;;;23.03;65.92;101178.59;4950300;28;45430;-85
2022/07/31 07:08:13;;;;;;;;;5.67;5.67;;;;;22.99;66.38;101176.88;4952703;28;45298;-85
2022/07/31 07:10:39;;;;;;;;;6.67;6.67;;;;;23.07;66.22;101176.66;4952028;28;44937;-85
2022/07/31 07:13:04;;;;;;;;;5.33;5.33;;;;;23.15;65.78;101171.91;4952875;28;45472;-86
2022/07/31 07:15:29;;;;;;;;;7.33;7.33;;;;;23.22;64.78;101178.00;4951393;28;45431;-85
2022/07/31 07:17:55;;;;;;;;;9.00;9.00;;;;;23.36;64.49;101173.03;4951378;28;47293;-85
2022/07/31 07:20:20;;;;;;;;;6.33;6.33;;;;;23.48;63.79;101182.59;4953945;28;45449;-85
2022/07/31 07:22:46;;;;;;;;;8.00;8.00;;;;;23.57;63.52;101185.00;4949877;28;45250;-86
2022/07/31 07:25:12;;;;;;;;;6.67;6.67;;;;;23.66;62.84;101186.53;4951976;28;45612;-86
2022/07/31 07:27:40;;;;;;;;;5.00;5.00;;;;;23.65;63.12;101191.09;4951490;28;47932;-86
2022/07/31 07:30:10;;;;;;;;;6.00;6.00;;;;;23.65;62.89;101180.22;4952347;28;45325;-86
2022/07/31 07:32:36;;;;;;;;;6.33;5.00;;;;;23.68;62.64;101182.81;4951484;28;45397;-85
2022/07/31 07:35:05;;;;;;;;;8.67;6.67;;;;;23.80;62.79;101189.72;4952869;28;45357;-86
2022/07/31 07:37:38;;;;;;;;;8.67;8.67;;;;;23.93;61.77;101192.88;4956552;28;45544;-86
2022/07/31 07:40:04;;;;;;;;;10.00;8.67;;;;;23.83;61.85;101175.13;4953600;28;45446;-86
2022/07/31 07:42:29;;;;;;;;;9.00;7.33;;;;;23.73;62.25;101189.00;4953667;28;45311;-85
2022/07/31 07:44:55;;;;;;;;;6.33;4.00;;;;;23.67;61.96;101194.66;4952839;28;45481;-85
2022/07/31 07:47:20;;;;;;;;;6.00;6.00;;;;;23.51;62.82;101177.06;4953224;28;47013;-85
2022/07/31 07:49:46;;;;;;;;;5.00;4.67;;;;;23.55;62.80;101197.72;4954339;28;44713;-86
2022/07/31 07:52:11;;;;;;;;;6.33;4.67;;;;;23.49;62.60;101200.66;4951354;28;45446;-85
2022/07/31 07:54:38;;;;;;;;;6.67;6.67;;;;;23.47;62.63;101192.56;4951940;28;45370;-85
2022/07/31 07:57:03;;;;;;;;;6.00;6.00;;;;;23.52;63.06;101200.56;4954283;28;45411;-85
2022/07/31 07:59:29;;;;;;;;;8.33;8.33;;;;;23.66;63.00;101200.13;4952489;28;45389;-85
2022/07/31 08:01:54;;;;;;;;;7.00;6.33;;;;;23.73;62.05;101197.16;4954397;28;45420;-85
2022/07/31 08:04:20;;;;;;;;;7.67;7.00;;;;;23.71;61.88;101190.88;4954676;28;45290;-85
2022/07/31 08:06:46;;;;;;;;;6.67;6.67;;;;;23.88;62.04;101197.59;4952681;28;45582;-84
2022/07/31 08:09:11;;;;;;;;;7.67;7.00;;;;;24.07;61.81;101197.84;4952813;28;45338;-85
2022/07/31 08:11:38;;;;;;;;;6.67;6.67;;;;;24.13;60.65;101195.78;4953426;28;45461;-85
2022/07/31 08:14:03;;;;;;;;;8.00;8.00;;;;;24.15;60.75;101196.63;4955406;28;45693;-86
2022/07/31 08:16:29;;;;;;;;;6.33;5.67;;;;;24.10;60.94;101204.06;4952716;28;46777;-86
2022/07/31 08:18:54;;;;;;;;;7.00;7.00;;;;;24.10;60.25;101200.47;4952750;28;44811;-86
2022/07/31 08:21:20;;;;;;;;;9.67;8.33;;;;;24.04;60.09;101196.13;4952857;28;45329;-86
2022/07/31 08:23:51;;;;;;;;;7.33;6.00;;;;;24.07;60.27;101198.72;4953379;28;44997;-86
2022/07/31 08:26:23;;;;;;;;;7.00;7.00;;;;;24.14;60.33;101203.03;4952132;28;47193;-86
2022/07/31 08:28:49;;;;;;;;;6.00;6.00;;;;;24.21;59.27;101202.81;4953892;28;45350;-85
2022/07/31 08:31:14;;;;;;;;;10.33;10.33;;;;;24.16;60.46;101198.41;4952397;28;45816;-86
2022/07/31 08:33:40;;;;;;;;;8.00;8.00;;;;;24.30;60.23;101195.22;4952181;28;44878;-86
2022/07/31 08:36:07;;;;;;;;;5.67;5.67;;;;;24.44;59.23;101194.72;4953188;28;45688;-85
2022/07/31 08:38:37;;;;;;;;;9.00;9.00;;;;;24.59;59.29;101195.13;4953383;28;45323;-86
2022/07/31 08:41:03;;;;;;;;;8.33;8.00;;;;;24.56;59.00;101174.34;4955714;28;45389;-85
2022/07/31 08:43:29;;;;;;;;;7.67;7.67;;;;;24.82;58.35;101196.97;4953651;28;45439;-85
2022/07/31 08:49:17;;;;;;;;;7.00;7.00;;;;;24.67;57.24;101193.88;4955612;28;45762;-85
2022/07/31 08:51:44;;;;;;;;;9.33;9.33;;;;;24.65;57.64;101208.50;4953903;28;45460;-86
2022/07/31 08:54:10;;;;;;;;;9.00;9.00;;;;;24.66;57.19;101204.81;4954711;28;45474;-85
2022/07/31 08:56:38;;;;;;;;;9.33;9.33;;;;;24.72;57.08;101201.88;4954130;28;46837;-85
2022/07/31 08:59:52;;;;;;;;;8.00;8.00;;;;;24.95;56.75;101203.72;4956015;28;45409;-85
2022/07/31 09:02:20;;;;;;;;;8.00;8.00;;;;;24.88;55.99;101197.63;4956130;28;45540;-87
2022/07/31 09:04:47;;;;;;;;;7.67;7.67;;;;;24.91;56.88;101194.78;4955894;28;45455;-85
2022/07/31 09:07:14;;;;;;;;;8.33;7.67;;;;;25.02;55.75;101186.19;4955667;28;46882;-85
2022/07/31 09:09:44;;;;;;;;;8.00;8.00;;;;;25.09;55.34;101195.91;4958747;28;44870;-85
2022/07/31 09:12:11;;;;;;;;;7.67;7.67;;;;;24.95;55.57;101193.72;4953740;28;45628;-82
2022/07/31 09:14:36;;;;;;;;;9.00;9.00;;;;;24.82;55.56;101192.41;4950316;28;44778;-82
2022/07/31 09:17:03;;;;;;;;;7.00;7.00;;;;;24.82;55.92;101186.97;4932736;28;46881;-83
2022/07/31 09:19:38;;;;;;;;;10.00;10.00;;;;;24.79;56.19;101188.94;4933383;28;45451;-82
2022/07/31 09:22:24;;;;;;;;;11.67;10.33;;;;;24.89;55.76;101187.66;4965906;28;45406;-82
2022/07/31 09:24:50;;;;;;;;;9.67;8.33;;;;;24.97;56.02;101190.94;4937507;28;45407;-82
2022/07/31 09:27:16;;;;;;;;;10.00;10.00;;;;;25.03;55.44;101171.66;4953508;28;46709;-82
2022/07/31 09:29:48;;;;;;;;;10.67;9.67;;;;;25.39;55.27;101181.16;4969273;28;45468;-81
2022/07/31 09:32:16;;;;;;;;;7.67;7.67;;;;;25.47;54.12;101182.63;4968848;28;44850;-84
2022/07/31 09:34:43;;;;;;;;;8.33;8.33;;;;;25.24;53.85;101153.59;4970404;28;45455;-82
2022/07/31 09:37:09;;;;;;;;;7.00;7.00;;;;;25.33;53.84;101185.03;4970310;28;48235;-83
2022/07/31 09:39:36;;;;;;;;;8.33;8.33;;;;;25.09;54.53;101159.66;4970121;28;45401;-83
2022/07/31 09:42:05;;;;;;;;;9.00;8.00;;;;;25.29;55.14;101175.22;4971458;28;45480;-82
2022/07/31 09:44:43;;;;;;;;;9.67;9.67;;;;;25.60;54.62;101188.47;4971311;28;45821;-83
2022/07/31 09:47:29;;;;;;;;;8.33;8.33;;;;;25.67;53.35;101192.72;4969568;28;46696;-84
2022/07/31 09:50:05;;;;;;;;;9.00;9.00;;;;;25.51;53.83;101202.44;4970853;28;45414;-83
2022/07/31 09:52:31;;;;;;;;;11.00;11.00;;;;;25.31;54.54;101155.16;4969893;28;45357;-83
2022/07/31 09:55:14;;;;;;;;;8.67;6.33;;;;;25.48;53.45;101178.94;4970650;28;45462;-83
2022/07/31 09:57:54;;;;;;;;;7.67;7.67;;;;;25.54;53.43;101199.59;4968473;28;48194;-82
2022/07/31 10:00:20;;;;;;;;;8.33;8.00;;;;;25.42;53.61;101197.38;4970113;28;44835;-84
2022/07/31 10:02:48;;;;;;;;;10.00;9.00;;;;;25.28;54.25;101212.44;4968183;28;45372;-82
2022/07/31 10:05:15;;;;;;;;;8.67;8.67;;;;;25.26;54.33;101198.00;4968886;28;45497;-83
2022/07/31 10:07:45;;;;;;;;;9.00;8.00;;;;;25.39;54.62;101197.50;4966897;28;46950;-83
2022/07/31 10:10:12;;;;;;;;;6.00;6.00;;;;;25.39;54.06;101187.50;4969085;28;45448;-82
2022/07/31 10:12:45;;;;;;;;;8.67;8.67;;;;;25.24;54.14;101190.84;4968209;28;45482;-83
2022/07/31 10:15:15;;;;;;;;;10.33;10.00;;;;;25.32;54.14;101186.84;4969956;28;45457;-83
2022/07/31 10:17:45;;;;;;;;;11.33;9.67;;;;;25.43;53.88;101178.28;4968933;28;47422;-82
2022/07/31 10:20:20;;;;;;;;;8.33;8.33;;;;;25.44;53.65;101184.59;4968960;28;45471;-82
2022/07/31 10:22:52;;;;;;;;;10.00;10.00;;;;;25.40;54.08;101188.38;4967941;28;45409;-82
2022/07/31 10:25:26;;;;;;;;;9.00;9.00;;;;;25.38;53.62;101187.56;4968284;28;45406;-82
2022/07/31 10:27:55;;;;;;;;;8.00;7.00;;;;;25.28;53.71;101196.09;4967867;28;46932;-84
2022/07/31 10:30:24;;;;;;;;;9.00;9.00;;;;;25.19;54.12;101179.19;4968196;28;45411;-82
2022/07/31 10:32:50;;;;;;;;;10.33;8.33;;;;;25.33;54.23;101179.59;4969610;28;45413;-83
2022/07/31 10:35:17;;;;;;;;;10.00;8.00;;;;;25.47;54.61;101162.66;4969306;28;45390;-83
2022/07/31 10:38:10;;;;;;;;;9.33;9.33;;;;;25.80;53.87;101181.28;4968700;28;47063;-84
2022/07/31 10:40:43;;;;;;;;;10.00;8.00;;;;;25.92;52.46;101175.34;4969792;28;45376;-83
2022/07/31 10:43:09;;;;;;;;;8.00;7.00;;;;;25.80;52.33;101184.91;4968183;28;45517;-82
2022/07/31 10:45:54;;;;;;;;;8.33;8.33;;;;;25.75;53.31;101168.75;4968181;28;45429;-83
2022/07/31 10:48:21;;;;;;;;;8.33;7.33;;;;;25.97;53.27;101173.28;4969551;28;45390;-83
2022/07/31 10:50:47;;;;;;;;;9.33;7.33;;;;;26.09;51.73;101161.84;4967883;28;44942;-83
2022/07/31 10:53:16;;;;;;;;;7.00;6.67;;;;;26.09;51.66;101170.03;4967553;28;45388;-84
2022/07/31 10:55:42;;;;;;;;;7.00;7.00;;;;;25.96;51.59;101168.81;4969323;28;45532;-83
2022/07/31 10:58:14;;;;;;;;;7.33;7.00;;;;;25.79;51.88;101177.66;4966373;28;46867;-83
2022/07/31 11:00:40;;;;;;;;;5.67;5.67;;;;;25.66;52.27;101152.78;4967490;28;45443;-83
2022/07/31 11:03:19;;;;;;;;;7.33;7.33;;;;;25.80;52.57;101154.03;4968608;28;45372;-85
2022/07/31 11:05:59;;;;;;;;;7.00;7.00;;;;;25.83;51.96;101153.91;4969761;28;45373;-83
2022/07/31 11:08:25;;;;;;;;;10.00;9.00;;;;;25.78;52.52;101147.78;4968036;28;45566;-83
2022/07/31 11:10:52;;;;;;;;;8.67;8.67;;;;;25.88;52.33;101162.78;4968563;28;45417;-82
2022/07/31 11:13:19;;;;;;;;;7.33;7.33;;;;;25.81;52.37;101142.19;4969995;28;45428;-83
2022/07/31 11:15:45;;;;;;;;;9.33;7.67;;;;;25.83;52.49;101153.91;4968893;28;45522;-83
2022/07/31 11:18:21;;;;;;;;;5.00;5.00;;;;;25.86;52.09;101148.31;4965977;28;47227;-84
2022/07/31 11:20:58;;;;;;;;;7.00;7.00;;;;;25.88;52.18;101151.88;4964650;28;45691;-83
2022/07/31 11:23:28;;;;;;;;;5.33;5.33;;;;;25.85;51.99;101147.41;4982813;28;45448;-83
2022/07/31 11:25:58;;;;;;;;;7.33;7.33;;;;;25.84;52.54;101147.50;4964229;28;45329;-82
2022/07/31 11:28:24;;;;;;;;;7.00;5.33;;;;;25.84;52.63;101144.78;4947817;28;46868;-82
2022/07/31 11:34:11;;;;;;;;;8.00;7.00;;;;;26.02;51.97;101141.28;4949657;28;45510;-83
2022/07/31 11:36:37;;;;;;;;;6.33;6.33;;;;;26.00;52.09;101120.50;4948904;28;45433;-83
2022/07/31 11:39:02;;;;;;;;;5.00;5.00;;;;;26.25;52.10;101142.97;4948413;28;46656;-83
2022/07/31 11:41:29;;;;;;;;;7.67;6.33;;;;;26.42;51.57;101127.69;4950495;28;45514;-83
2022/07/31 11:43:56;;;;;;;;;5.33;5.00;;;;;26.50;50.63;101128.22;4950813;28;45448;-83
2022/07/31 11:46:27;;;;;;;;;4.33;4.33;;;;;26.53;51.04;101145.34;4948871;28;45685;-83
2022/07/31 11:48:55;;;;;;;;;5.33;5.33;;;;;26.25;51.02;101142.09;4947629;28;46862;-82
2022/07/31 11:51:22;;;;;;;;;5.67;5.67;;;;;26.13;51.34;101127.16;4948968;28;45424;-83
2022/07/31 11:53:48;;;;;;;;;4.00;4.00;;;;;26.17;52.01;101127.94;4948301;28;45525;-82
2022/07/31 11:56:18;;;;;;;;;4.67;4.67;;;;;26.21;51.42;101138.63;4948109;28;45391;-83
2022/07/31 11:58:53;;;;;;;;;4.00;4.00;;;;;26.23;51.82;101144.88;4964698;28;46696;-84
2022/07/31 12:01:22;;;;;;;;;4.00;3.00;;;;;26.18;52.27;101126.94;4948564;28;44941;-83
2022/07/31 12:03:48;;;;;;;;;5.00;5.00;;;;;26.04;52.54;101117.56;4948964;28;45410;-83